createdAt,value
2018-11-28T00:00:29.114Z,47.00
2018-11-28T00:05:32.481Z,47.13
2018-11-28T00:10:35.794Z,47.05
2018-11-28T00:15:39.140Z,47.12
2018-11-28T00:20:42.481Z,47.22
2018-11-28T00:25:45.820Z,47.07
2018-11-28T00:30:49.144Z,46.96
2018-11-28T00:35:52.497Z,47.15
2018-11-28T00:40:55.850Z,46.84
2018-11-28T00:45:59.231Z,47.01
2018-11-28T00:51:02.587Z,47.33
2018-11-28T00:56:06.090Z,47.15
2018-11-28T01:01:09.459Z,47.00
2018-11-28T01:06:12.827Z,47.08
2018-11-28T01:11:16.205Z,47.58
2018-11-28T01:16:19.553Z,47.58
2018-11-28T01:21:22.906Z,47.55
2018-11-28T01:26:26.279Z,47.56
2018-11-28T01:31:29.606Z,47.48
2018-11-28T01:36:32.963Z,47.78
2018-11-28T01:41:36.308Z,47.62
2018-11-28T01:46:39.673Z,48.20
2018-11-28T01:51:43.008Z,47.99
2018-11-28T01:56:46.338Z,48.20
2018-11-28T02:01:49.681Z,48.48
2018-11-28T02:06:53.013Z,48.48
2018-11-28T02:11:56.366Z,48.41
2018-11-28T02:16:59.719Z,48.86
2018-11-28T02:22:03.060Z,48.75
2018-11-28T02:27:06.440Z,48.65
2018-11-28T02:32:09.772Z,48.88
2018-11-28T02:37:13.079Z,48.84
2018-11-28T02:42:16.443Z,49.10
2018-11-28T02:47:19.792Z,49.24
2018-11-28T02:52:23.110Z,48.93
2018-11-28T02:57:26.429Z,49.20
2018-11-28T03:02:29.756Z,49.13
2018-11-28T03:07:33.109Z,49.04
2018-11-28T03:12:36.439Z,49.32
2018-11-28T03:17:39.751Z,49.54
2018-11-28T03:22:43.095Z,49.25
2018-11-28T03:27:46.417Z,49.09
2018-11-28T03:32:49.750Z,49.50
2018-11-28T03:37:53.072Z,49.56
2018-11-28T03:42:56.390Z,49.55
2018-11-28T03:47:59.735Z,49.50
2018-11-28T03:53:03.096Z,49.49
2018-11-28T03:58:06.406Z,49.63
2018-11-28T04:03:09.768Z,49.62
2018-11-28T04:08:13.132Z,50.03
2018-11-28T04:13:16.459Z,49.60
2018-11-28T04:18:19.815Z,50.05
2018-11-28T04:28:32.530Z,49.86
2018-11-28T04:33:35.904Z,49.65
2018-11-28T04:38:39.283Z,49.15
2018-11-28T04:43:42.654Z,49.44
2018-11-28T04:48:45.992Z,48.90
2018-11-28T04:53:49.311Z,49.06
2018-11-28T04:58:52.639Z,49.43
2018-11-28T05:03:55.956Z,49.00
2018-11-28T05:08:59.303Z,49.31
2018-11-28T05:14:02.625Z,49.24
2018-11-28T05:19:06.075Z,49.42
2018-11-28T05:24:09.398Z,49.05
2018-11-28T05:29:12.726Z,49.23
2018-11-28T05:34:16.030Z,49.42
2018-11-28T05:39:19.356Z,49.39
2018-11-28T05:44:22.698Z,49.35
2018-11-28T05:49:26.045Z,49.18
2018-11-28T05:54:29.393Z,49.06
2018-11-28T05:59:32.761Z,49.09
2018-11-28T06:04:36.084Z,49.10
2018-11-28T06:09:39.464Z,48.98
2018-11-28T06:14:42.787Z,49.19
2018-11-28T06:19:46.136Z,49.33
2018-11-28T06:24:49.462Z,49.02
2018-11-28T06:29:52.839Z,49.02
2018-11-28T06:34:56.168Z,49.16
2018-11-28T06:39:59.511Z,49.28
2018-11-28T06:45:03.097Z,49.24
2018-11-28T06:50:09.890Z,49.11
2018-11-28T06:55:15.565Z,49.57
2018-11-28T07:00:20.936Z,49.47
2018-11-28T07:05:24.342Z,49.55
2018-11-28T07:10:27.660Z,49.74
2018-11-28T07:15:31.007Z,49.85
2018-11-28T07:20:34.342Z,49.76
2018-11-28T07:25:37.674Z,49.65
2018-11-28T07:30:41.020Z,49.72
2018-11-28T07:35:44.344Z,49.63
2018-11-28T07:40:47.727Z,49.85
2018-11-28T07:45:52.143Z,49.83
2018-11-28T07:50:55.547Z,49.83
2018-11-28T07:55:58.878Z,31.46
2018-11-28T08:01:02.319Z,33.24
2018-11-28T08:06:05.751Z,33.67
2018-11-28T08:11:09.096Z,31.90
2018-11-28T08:16:12.428Z,32.87
2018-11-28T08:21:15.763Z,32.70
2018-11-28T08:26:19.118Z,34.89
2018-11-28T08:31:22.439Z,35.36
2018-11-28T08:36:25.787Z,36.87
2018-11-28T08:41:29.132Z,35.99
2018-11-28T08:46:32.476Z,36.02
2018-11-28T08:51:35.801Z,37.31
2018-11-28T08:56:39.128Z,37.77
2018-11-28T09:01:42.474Z,38.64
2018-11-28T09:06:45.831Z,36.90
2018-11-28T09:11:49.167Z,38.15
2018-11-28T09:16:52.478Z,38.27
2018-11-28T09:21:55.811Z,37.79
2018-11-28T09:26:59.170Z,37.99
2018-11-28T09:32:02.515Z,39.32
2018-11-28T09:37:05.977Z,39.36
2018-11-28T09:42:09.326Z,40.51
2018-11-28T09:47:12.653Z,40.91
2018-11-28T09:52:15.963Z,41.18
2018-11-28T09:57:19.273Z,41.61
2018-11-28T10:02:22.611Z,42.39
2018-11-28T10:07:25.943Z,42.80
2018-11-28T10:12:29.250Z,42.97
2018-11-28T10:17:32.609Z,43.77
2018-11-28T10:22:36.022Z,43.12
2018-11-28T10:27:39.442Z,42.41
2018-11-28T10:32:42.778Z,42.54
2018-11-28T10:37:46.151Z,42.53
2018-11-28T10:42:51.729Z,42.77
2018-11-28T10:47:55.099Z,43.41
2018-11-28T10:52:58.416Z,43.86
2018-11-28T10:58:01.742Z,43.90
2018-11-28T11:03:11.736Z,44.01
2018-11-28T11:08:20.533Z,44.57
2018-11-28T11:13:29.059Z,44.54
2018-11-28T11:18:32.395Z,44.58
2018-11-28T11:23:35.723Z,44.05
2018-11-28T11:28:39.051Z,44.43
2018-11-28T11:33:42.382Z,44.17
2018-11-28T11:38:45.722Z,44.07
2018-11-28T11:43:49.066Z,43.94
2018-11-28T11:48:59.012Z,44.29
2018-11-28T11:54:02.331Z,44.13
2018-11-28T11:59:05.650Z,44.11
2018-11-28T12:04:08.974Z,44.07
2018-11-28T12:09:12.333Z,44.69
2018-11-28T12:14:15.660Z,44.93
2018-11-28T12:19:18.979Z,44.85
2018-11-28T12:24:22.292Z,45.19
2018-11-28T12:29:25.634Z,44.33
2018-11-28T12:34:28.967Z,44.41
2018-11-28T12:39:32.315Z,44.61
2018-11-28T12:44:35.634Z,43.47
2018-11-28T12:49:39.027Z,44.52
2018-11-28T12:54:42.353Z,43.94
2018-11-28T12:59:45.667Z,44.79
2018-11-28T13:04:48.986Z,45.24
2018-11-28T13:09:52.639Z,45.04
2018-11-28T13:14:55.985Z,45.20
2018-11-28T13:19:59.324Z,45.34
2018-11-28T13:25:02.723Z,45.82
2018-11-28T13:30:13.738Z,46.31
2018-11-28T13:35:19.950Z,46.69
2018-11-28T13:40:23.292Z,46.77
2018-11-28T13:45:29.122Z,47.04
2018-11-28T13:50:32.462Z,46.46
2018-11-28T13:55:39.580Z,45.84
2018-11-28T14:00:41.764Z,45.50
2018-11-28T14:05:45.121Z,46.12
2018-11-28T14:10:48.466Z,45.99
2018-11-28T14:15:51.797Z,45.95
2018-11-28T14:20:55.103Z,46.39
2018-11-28T14:25:58.485Z,46.16
2018-11-28T14:31:01.864Z,46.66
2018-11-28T14:36:05.484Z,46.97
2018-11-28T14:41:08.793Z,46.65
2018-11-28T14:46:12.143Z,46.72
2018-11-28T14:51:16.034Z,46.66
2018-11-28T14:56:19.467Z,46.89
2018-11-28T15:01:23.206Z,46.56
2018-11-28T15:06:32.732Z,46.09
2018-11-28T15:11:36.116Z,46.07
2018-11-28T15:16:39.463Z,46.28
2018-11-28T15:21:42.788Z,46.14
2018-11-28T15:26:46.271Z,46.04
2018-11-28T15:31:49.832Z,46.31
2018-11-28T15:36:53.228Z,46.57
2018-11-28T15:41:56.602Z,46.94
2018-11-28T15:46:59.985Z,47.01
2018-11-28T15:52:03.347Z,47.23
2018-11-28T15:57:06.778Z,47.06
2018-11-28T16:02:10.163Z,46.91
2018-11-28T16:07:13.498Z,46.88
2018-11-28T16:12:16.900Z,47.16
2018-11-28T16:17:20.339Z,47.15
2018-11-28T16:22:23.723Z,47.10
2018-11-28T16:27:28.024Z,47.17
2018-11-28T16:32:31.377Z,47.42
2018-11-28T16:37:34.739Z,47.41
2018-11-28T16:42:38.139Z,47.92
2018-11-28T16:47:41.485Z,47.50
2018-11-28T16:52:44.987Z,48.01
2018-11-28T16:57:51.847Z,47.58
2018-11-28T17:02:55.775Z,47.79
2018-11-28T17:07:59.128Z,46.36
2018-11-28T17:13:02.479Z,45.06
2018-11-28T17:18:06.569Z,45.02
2018-11-28T17:23:09.959Z,44.95
2018-11-28T17:28:13.343Z,44.92
2018-11-28T17:33:16.679Z,44.61
2018-11-28T17:38:20.036Z,44.58
2018-11-28T17:43:23.367Z,44.69
2018-11-28T17:48:26.711Z,44.88
2018-11-28T17:53:30.065Z,44.93
2018-11-28T17:58:33.415Z,45.16
2018-11-28T18:03:36.809Z,44.50
2018-11-28T18:08:40.146Z,44.97
2018-11-28T18:13:43.903Z,44.79
2018-11-28T18:18:47.249Z,44.33
2018-11-28T18:23:50.595Z,44.54
2018-11-28T18:28:53.945Z,44.55
2018-11-28T18:33:57.300Z,44.86
2018-11-28T18:39:00.681Z,44.72
2018-11-28T18:44:04.084Z,44.73
2018-11-28T18:49:07.442Z,44.65
2018-11-28T18:54:10.789Z,43.76
2018-11-28T18:59:14.138Z,44.21
2018-11-28T19:09:25.436Z,44.29
2018-11-28T19:14:28.752Z,44.33
2018-11-28T19:19:32.074Z,44.31
2018-11-28T19:24:35.408Z,44.03
2018-11-28T19:29:38.748Z,44.35
2018-11-28T19:39:45.396Z,44.37
2018-11-28T19:44:48.734Z,44.09
2018-11-28T19:49:52.064Z,44.09
2018-11-28T19:54:55.391Z,44.42
2018-11-28T20:05:08.371Z,44.37
2018-11-28T20:10:13.952Z,44.15
2018-11-28T20:15:18.600Z,44.80
2018-11-28T20:20:22.020Z,44.73
2018-11-28T20:25:25.726Z,45.06
2018-11-28T20:30:38.352Z,45.35
2018-11-28T20:35:42.667Z,45.35
2018-11-28T20:40:46.018Z,45.54
2018-11-28T20:45:49.364Z,45.27
2018-11-28T20:50:53.127Z,45.76
2018-11-28T20:55:57.489Z,45.82
2018-11-28T21:01:00.847Z,46.15
2018-11-28T21:06:04.251Z,45.84
2018-11-28T21:11:07.626Z,46.01
2018-11-28T21:16:10.946Z,45.86
2018-11-28T21:21:14.274Z,45.91
2018-11-28T21:26:17.616Z,46.68
2018-11-28T21:31:20.966Z,46.12
2018-11-28T21:36:24.319Z,46.06
2018-11-28T21:41:27.674Z,46.82
2018-11-28T21:46:31.013Z,46.69
2018-11-28T21:51:34.335Z,46.36
2018-11-28T21:56:38.190Z,46.46
2018-11-28T22:01:41.027Z,46.69
2018-11-28T22:06:44.423Z,46.40
2018-11-28T22:11:47.762Z,47.43
2018-11-28T22:16:51.155Z,46.87
2018-11-28T22:21:54.507Z,46.98
2018-11-28T22:26:57.823Z,46.82
2018-11-28T22:32:01.157Z,46.75
2018-11-28T22:37:04.495Z,47.05
2018-11-28T22:42:07.848Z,47.01
2018-11-28T22:47:11.179Z,47.08
2018-11-28T22:52:14.508Z,46.93
2018-11-28T22:57:17.850Z,47.11
2018-11-28T23:02:41.396Z,47.07
2018-11-28T23:07:44.746Z,47.60
2018-11-28T23:12:48.105Z,47.52
2018-11-28T23:17:55.153Z,47.56
2018-11-28T23:22:54.838Z,47.71
2018-11-28T23:27:58.182Z,47.76
2018-11-28T23:33:02.069Z,48.09
2018-11-28T23:38:06.018Z,48.08
2018-11-28T23:43:09.365Z,47.98
2018-11-28T23:48:12.715Z,48.28
2018-11-28T23:53:16.069Z,48.01
2018-11-28T23:58:19.377Z,48.25
